sensor_id;sensor_type;location;lat;lon;timestamp;temperature;humidity
74224;SHT31;62585;49.706;18.216;2023-03-26T00:01:07;8.07;70.87
74224;SHT31;62585;49.706;18.216;2023-03-26T00:03:37;8.16;70.44
74224;SHT31;62585;49.706;18.216;2023-03-26T00:06:16;8.12;70.29
74224;SHT31;62585;49.706;18.216;2023-03-26T00:08:43;8.13;70.28
74224;SHT31;62585;49.706;18.216;2023-03-26T00:11:13;8.17;70.08
74224;SHT31;62585;49.706;18.216;2023-03-26T00:13:39;8.17;70.43
74224;SHT31;62585;49.706;18.216;2023-03-26T00:16:12;8.25;70.16
74224;SHT31;62585;49.706;18.216;2023-03-26T00:18:38;8.14;70.33
74224;SHT31;62585;49.706;18.216;2023-03-26T00:21:06;8.09;70.46
74224;SHT31;62585;49.706;18.216;2023-03-26T00:23:34;8.06;70.82
74224;SHT31;62585;49.706;18.216;2023-03-26T00:26:02;8.06;70.91
74224;SHT31;62585;49.706;18.216;2023-03-26T00:28:28;8.05;71.17
74224;SHT31;62585;49.706;18.216;2023-03-26T00:31:00;8.03;70.67
74224;SHT31;62585;49.706;18.216;2023-03-26T00:33:26;8.01;70.92
74224;SHT31;62585;49.706;18.216;2023-03-26T00:35:53;7.96;71.19
74224;SHT31;62585;49.706;18.216;2023-03-26T00:38:19;7.93;71.21
74224;SHT31;62585;49.706;18.216;2023-03-26T00:40:47;7.84;71.63
74224;SHT31;62585;49.706;18.216;2023-03-26T00:43:16;7.81;71.48
74224;SHT31;62585;49.706;18.216;2023-03-26T00:45:50;7.85;71.53
74224;SHT31;62585;49.706;18.216;2023-03-26T00:48:17;7.78;71.71
74224;SHT31;62585;49.706;18.216;2023-03-26T00:50:44;7.81;71.66
74224;SHT31;62585;49.706;18.216;2023-03-26T00:53:12;7.71;71.69
74224;SHT31;62585;49.706;18.216;2023-03-26T00:55:47;7.72;71.65
74224;SHT31;62585;49.706;18.216;2023-03-26T00:58:14;7.72;71.76
74224;SHT31;62585;49.706;18.216;2023-03-26T01:00:56;7.74;71.64
74224;SHT31;62585;49.706;18.216;2023-03-26T01:03:24;7.78;71.73
74224;SHT31;62585;49.706;18.216;2023-03-26T01:05:56;7.70;71.84
74224;SHT31;62585;49.706;18.216;2023-03-26T01:08:27;7.63;72.21
74224;SHT31;62585;49.706;18.216;2023-03-26T01:10:56;7.51;72.59
74224;SHT31;62585;49.706;18.216;2023-03-26T01:13:34;7.51;72.62
74224;SHT31;62585;49.706;18.216;2023-03-26T01:16:00;7.51;72.54
74224;SHT31;62585;49.706;18.216;2023-03-26T01:18:29;7.51;72.51
74224;SHT31;62585;49.706;18.216;2023-03-26T01:21:00;7.55;72.34
74224;SHT31;62585;49.706;18.216;2023-03-26T01:23:41;7.55;72.38
74224;SHT31;62585;49.706;18.216;2023-03-26T01:26:18;7.61;72.21
74224;SHT31;62585;49.706;18.216;2023-03-26T01:28:49;7.61;72.06
74224;SHT31;62585;49.706;18.216;2023-03-26T01:32:10;7.65;72.08
74224;SHT31;62585;49.706;18.216;2023-03-26T01:34:29;7.70;71.83
74224;SHT31;62585;49.706;18.216;2023-03-26T01:39:51;7.50;72.79
74224;SHT31;62585;49.706;18.216;2023-03-26T01:45:34;7.54;72.88
74224;SHT31;62585;49.706;18.216;2023-03-26T01:48:01;7.53;72.85
74224;SHT31;62585;49.706;18.216;2023-03-26T01:50:26;7.54;72.90
74224;SHT31;62585;49.706;18.216;2023-03-26T01:52:52;7.55;73.08
74224;SHT31;62585;49.706;18.216;2023-03-26T01:55:18;7.57;73.00
74224;SHT31;62585;49.706;18.216;2023-03-26T01:58:02;7.70;72.61
74224;SHT31;62585;49.706;18.216;2023-03-26T02:03:40;7.77;72.00
74224;SHT31;62585;49.706;18.216;2023-03-26T02:06:24;7.82;71.59
74224;SHT31;62585;49.706;18.216;2023-03-26T02:08:59;7.86;71.33
74224;SHT31;62585;49.706;18.216;2023-03-26T02:11:26;7.85;71.34
74224;SHT31;62585;49.706;18.216;2023-03-26T02:13:52;7.85;71.53
74224;SHT31;62585;49.706;18.216;2023-03-26T02:16:18;7.91;71.33
74224;SHT31;62585;49.706;18.216;2023-03-26T02:18:46;7.85;71.35
74224;SHT31;62585;49.706;18.216;2023-03-26T02:21:20;7.89;71.23
74224;SHT31;62585;49.706;18.216;2023-03-26T02:23:49;7.86;71.26
74224;SHT31;62585;49.706;18.216;2023-03-26T02:26:17;7.77;71.28
74224;SHT31;62585;49.706;18.216;2023-03-26T02:28:44;7.75;71.46
74224;SHT31;62585;49.706;18.216;2023-03-26T02:31:10;7.77;71.36
74224;SHT31;62585;49.706;18.216;2023-03-26T02:33:38;7.78;71.22
74224;SHT31;62585;49.706;18.216;2023-03-26T02:36:05;7.84;70.73
74224;SHT31;62585;49.706;18.216;2023-03-26T02:38:33;7.86;70.57
74224;SHT31;62585;49.706;18.216;2023-03-26T02:41:03;7.78;70.77
74224;SHT31;62585;49.706;18.216;2023-03-26T02:43:29;7.78;70.85
74224;SHT31;62585;49.706;18.216;2023-03-26T02:45:55;7.78;71.04
74224;SHT31;62585;49.706;18.216;2023-03-26T02:48:21;7.81;70.68
74224;SHT31;62585;49.706;18.216;2023-03-26T02:50:47;7.77;70.97
74224;SHT31;62585;49.706;18.216;2023-03-26T02:53:17;7.77;70.87
74224;SHT31;62585;49.706;18.216;2023-03-26T02:55:43;7.78;70.68
74224;SHT31;62585;49.706;18.216;2023-03-26T02:58:09;7.78;70.71
74224;SHT31;62585;49.706;18.216;2023-03-26T03:00:36;7.70;70.72
74224;SHT31;62585;49.706;18.216;2023-03-26T03:03:02;7.77;70.59
74224;SHT31;62585;49.706;18.216;2023-03-26T03:05:30;7.81;70.31
74224;SHT31;62585;49.706;18.216;2023-03-26T03:07:57;7.75;70.48
74224;SHT31;62585;49.706;18.216;2023-03-26T03:10:26;7.82;70.50
74224;SHT31;62585;49.706;18.216;2023-03-26T03:12:53;7.78;70.58
74224;SHT31;62585;49.706;18.216;2023-03-26T03:15:22;7.72;70.78
74224;SHT31;62585;49.706;18.216;2023-03-26T03:17:48;7.68;71.03
74224;SHT31;62585;49.706;18.216;2023-03-26T03:20:13;7.74;70.77
74224;SHT31;62585;49.706;18.216;2023-03-26T03:22:40;7.70;70.87
74224;SHT31;62585;49.706;18.216;2023-03-26T03:25:06;7.64;71.39
74224;SHT31;62585;49.706;18.216;2023-03-26T03:27:40;7.51;71.80
74224;SHT31;62585;49.706;18.216;2023-03-26T03:30:08;7.58;71.35
74224;SHT31;62585;49.706;18.216;2023-03-26T03:32:35;7.57;71.40
74224;SHT31;62585;49.706;18.216;2023-03-26T03:35:01;7.53;71.66
74224;SHT31;62585;49.706;18.216;2023-03-26T03:37:27;7.54;71.54
74224;SHT31;62585;49.706;18.216;2023-03-26T03:39:52;7.55;71.38
74224;SHT31;62585;49.706;18.216;2023-03-26T03:42:18;7.67;70.44
74224;SHT31;62585;49.706;18.216;2023-03-26T03:44:44;7.67;70.45
74224;SHT31;62585;49.706;18.216;2023-03-26T03:47:10;7.72;70.18
74224;SHT31;62585;49.706;18.216;2023-03-26T03:49:38;7.70;70.27
74224;SHT31;62585;49.706;18.216;2023-03-26T03:52:05;7.67;70.56
74224;SHT31;62585;49.706;18.216;2023-03-26T03:54:31;7.58;71.13
74224;SHT31;62585;49.706;18.216;2023-03-26T03:56:57;7.72;70.45
74224;SHT31;62585;49.706;18.216;2023-03-26T03:59:23;7.70;70.46
74224;SHT31;62585;49.706;18.216;2023-03-26T04:01:49;7.61;71.11
74224;SHT31;62585;49.706;18.216;2023-03-26T04:04:15;7.61;71.00
74224;SHT31;62585;49.706;18.216;2023-03-26T04:06:42;7.63;71.07
74224;SHT31;62585;49.706;18.216;2023-03-26T04:09:07;7.58;71.24
74224;SHT31;62585;49.706;18.216;2023-03-26T04:11:35;7.63;70.87
74224;SHT31;62585;49.706;18.216;2023-03-26T04:14:01;7.63;70.70
74224;SHT31;62585;49.706;18.216;2023-03-26T04:16:27;7.65;70.84
74224;SHT31;62585;49.706;18.216;2023-03-26T04:18:53;7.65;70.90
74224;SHT31;62585;49.706;18.216;2023-03-26T04:21:18;7.74;70.51
74224;SHT31;62585;49.706;18.216;2023-03-26T04:23:45;7.65;70.93
74224;SHT31;62585;49.706;18.216;2023-03-26T04:26:14;7.70;70.99
74224;SHT31;62585;49.706;18.216;2023-03-26T04:28:44;7.71;70.71
74224;SHT31;62585;49.706;18.216;2023-03-26T04:31:17;7.79;70.10
74224;SHT31;62585;49.706;18.216;2023-03-26T04:33:45;7.78;70.25
74224;SHT31;62585;49.706;18.216;2023-03-26T04:36:13;7.84;70.25
74224;SHT31;62585;49.706;18.216;2023-03-26T04:38:44;7.77;70.32
74224;SHT31;62585;49.706;18.216;2023-03-26T04:41:14;7.79;70.55
74224;SHT31;62585;49.706;18.216;2023-03-26T04:43:40;7.72;70.61
74224;SHT31;62585;49.706;18.216;2023-03-26T04:46:16;7.75;70.52
74224;SHT31;62585;49.706;18.216;2023-03-26T04:48:43;7.77;70.59
74224;SHT31;62585;49.706;18.216;2023-03-26T04:51:11;7.75;70.48
74224;SHT31;62585;49.706;18.216;2023-03-26T04:53:47;7.74;70.97
74224;SHT31;62585;49.706;18.216;2023-03-26T04:59:01;7.74;70.96
74224;SHT31;62585;49.706;18.216;2023-03-26T05:01:27;7.77;70.97
74224;SHT31;62585;49.706;18.216;2023-03-26T05:03:53;7.77;70.72
74224;SHT31;62585;49.706;18.216;2023-03-26T05:06:20;7.81;70.27
74224;SHT31;62585;49.706;18.216;2023-03-26T05:08:46;7.81;70.68
74224;SHT31;62585;49.706;18.216;2023-03-26T05:11:12;7.78;70.54
74224;SHT31;62585;49.706;18.216;2023-03-26T05:13:38;7.86;70.61
74224;SHT31;62585;49.706;18.216;2023-03-26T05:16:04;7.82;70.43
74224;SHT31;62585;49.706;18.216;2023-03-26T05:18:30;7.89;70.52
74224;SHT31;62585;49.706;18.216;2023-03-26T05:20:56;7.78;70.95
74224;SHT31;62585;49.706;18.216;2023-03-26T05:23:22;7.82;70.81
74224;SHT31;62585;49.706;18.216;2023-03-26T05:25:48;7.92;70.54
74224;SHT31;62585;49.706;18.216;2023-03-26T05:28:14;7.84;70.60
74224;SHT31;62585;49.706;18.216;2023-03-26T05:30:41;7.91;70.50
74224;SHT31;62585;49.706;18.216;2023-03-26T05:33:08;7.92;70.53
74224;SHT31;62585;49.706;18.216;2023-03-26T05:35:33;7.92;70.47
74224;SHT31;62585;49.706;18.216;2023-03-26T05:37:59;7.92;70.62
74224;SHT31;62585;49.706;18.216;2023-03-26T05:40:25;7.91;70.76
74224;SHT31;62585;49.706;18.216;2023-03-26T05:42:51;7.92;70.70
74224;SHT31;62585;49.706;18.216;2023-03-26T05:45:17;7.95;70.90
74224;SHT31;62585;49.706;18.216;2023-03-26T05:47:43;8.01;70.77
74224;SHT31;62585;49.706;18.216;2023-03-26T05:50:09;8.05;70.50
74224;SHT31;62585;49.706;18.216;2023-03-26T05:52:35;8.05;70.80
74224;SHT31;62585;49.706;18.216;2023-03-26T05:55:02;8.02;70.70
74224;SHT31;62585;49.706;18.216;2023-03-26T05:57:29;8.01;71.00
74224;SHT31;62585;49.706;18.216;2023-03-26T05:59:55;8.07;70.76
74224;SHT31;62585;49.706;18.216;2023-03-26T06:02:21;8.05;71.26
74224;SHT31;62585;49.706;18.216;2023-03-26T06:04:48;8.05;70.76
74224;SHT31;62585;49.706;18.216;2023-03-26T06:07:16;8.12;70.76
74224;SHT31;62585;49.706;18.216;2023-03-26T06:09:42;8.10;70.86
74224;SHT31;62585;49.706;18.216;2023-03-26T06:12:09;8.14;70.98
74224;SHT31;62585;49.706;18.216;2023-03-26T06:14:35;8.09;71.53
74224;SHT31;62585;49.706;18.216;2023-03-26T06:17:01;8.13;71.01
74224;SHT31;62585;49.706;18.216;2023-03-26T06:19:27;8.12;71.40
74224;SHT31;62585;49.706;18.216;2023-03-26T06:21:53;8.05;71.02
74224;SHT31;62585;49.706;18.216;2023-03-26T06:24:19;8.06;71.46
74224;SHT31;62585;49.706;18.216;2023-03-26T06:26:45;8.06;71.36
74224;SHT31;62585;49.706;18.216;2023-03-26T06:29:12;8.07;71.32
74224;SHT31;62585;49.706;18.216;2023-03-26T06:31:39;8.10;71.25
74224;SHT31;62585;49.706;18.216;2023-03-26T06:34:05;8.09;70.96
74224;SHT31;62585;49.706;18.216;2023-03-26T06:36:31;8.09;71.38
74224;SHT31;62585;49.706;18.216;2023-03-26T06:38:57;8.12;70.95
74224;SHT31;62585;49.706;18.216;2023-03-26T06:41:23;8.17;71.11
74224;SHT31;62585;49.706;18.216;2023-03-26T06:43:49;8.39;71.01
74224;SHT31;62585;49.706;18.216;2023-03-26T06:46:15;8.56;70.09
74224;SHT31;62585;49.706;18.216;2023-03-26T06:48:41;8.60;69.92
74224;SHT31;62585;49.706;18.216;2023-03-26T06:51:08;8.74;69.47
74224;SHT31;62585;49.706;18.216;2023-03-26T06:53:34;8.74;69.52
74224;SHT31;62585;49.706;18.216;2023-03-26T06:56:00;8.88;68.85
74224;SHT31;62585;49.706;18.216;2023-03-26T06:58:28;9.07;68.80
74224;SHT31;62585;49.706;18.216;2023-03-26T07:00:55;9.01;67.94
74224;SHT31;62585;49.706;18.216;2023-03-26T07:03:21;9.01;67.94
74224;SHT31;62585;49.706;18.216;2023-03-26T07:05:47;9.14;67.64
74224;SHT31;62585;49.706;18.216;2023-03-26T07:08:13;9.39;66.50
74224;SHT31;62585;49.706;18.216;2023-03-26T07:10:40;9.57;65.81
74224;SHT31;62585;49.706;18.216;2023-03-26T07:13:06;9.56;65.48
74224;SHT31;62585;49.706;18.216;2023-03-26T07:15:32;9.84;66.05
74224;SHT31;62585;49.706;18.216;2023-03-26T07:17:58;9.95;64.69
74224;SHT31;62585;49.706;18.216;2023-03-26T07:20:24;9.87;64.90
74224;SHT31;62585;49.706;18.216;2023-03-26T07:22:50;9.95;64.04
74224;SHT31;62585;49.706;18.216;2023-03-26T07:25:17;9.90;64.63
74224;SHT31;62585;49.706;18.216;2023-03-26T07:33:27;9.64;65.30
74224;SHT31;62585;49.706;18.216;2023-03-26T07:38:51;9.33;65.54
74224;SHT31;62585;49.706;18.216;2023-03-26T07:41:29;9.36;65.70
74224;SHT31;62585;49.706;18.216;2023-03-26T07:46:34;9.35;66.11
74224;SHT31;62585;49.706;18.216;2023-03-26T07:49:02;9.43;65.84
74224;SHT31;62585;49.706;18.216;2023-03-26T07:51:30;9.39;65.99
74224;SHT31;62585;49.706;18.216;2023-03-26T07:53:56;9.43;66.15
74224;SHT31;62585;49.706;18.216;2023-03-26T07:56:37;9.51;66.34
74224;SHT31;62585;49.706;18.216;2023-03-26T07:59:19;9.42;65.47
74224;SHT31;62585;49.706;18.216;2023-03-26T08:02:02;9.44;65.75
74224;SHT31;62585;49.706;18.216;2023-03-26T08:10:26;9.47;66.02
74224;SHT31;62585;49.706;18.216;2023-03-26T08:21:29;9.64;66.13
74224;SHT31;62585;49.706;18.216;2023-03-26T08:24:21;9.70;65.24
74224;SHT31;62585;49.706;18.216;2023-03-26T08:29:41;9.85;65.19
74224;SHT31;62585;49.706;18.216;2023-03-26T08:32:13;9.88;64.54
74224;SHT31;62585;49.706;18.216;2023-03-26T08:34:41;9.87;64.99
74224;SHT31;62585;49.706;18.216;2023-03-26T08:37:06;9.97;65.22
74224;SHT31;62585;49.706;18.216;2023-03-26T08:39:35;9.94;65.22
74224;SHT31;62585;49.706;18.216;2023-03-26T09:02:17;10.01;65.53
74224;SHT31;62585;49.706;18.216;2023-03-26T09:10:53;10.22;64.40
74224;SHT31;62585;49.706;18.216;2023-03-26T09:27:38;11.66;55.44
74224;SHT31;62585;49.706;18.216;2023-03-26T09:33:04;11.42;58.29
74224;SHT31;62585;49.706;18.216;2023-03-26T10:08:33;11.65;56.82
74224;SHT31;62585;49.706;18.216;2023-03-26T10:16:49;11.67;57.26
74224;SHT31;62585;49.706;18.216;2023-03-26T10:19:29;12.00;57.53
74224;SHT31;62585;49.706;18.216;2023-03-26T10:33:57;11.63;58.51
74224;SHT31;62585;49.706;18.216;2023-03-26T10:36:37;11.70;57.90
74224;SHT31;62585;49.706;18.216;2023-03-26T10:52:51;11.27;58.48
74224;SHT31;62585;49.706;18.216;2023-03-26T10:55:23;11.21;57.67
74224;SHT31;62585;49.706;18.216;2023-03-26T10:58:22;11.36;57.62
74224;SHT31;62585;49.706;18.216;2023-03-26T11:11:38;11.34;56.64
74224;SHT31;62585;49.706;18.216;2023-03-26T11:14:11;11.35;57.21
74224;SHT31;62585;49.706;18.216;2023-03-26T11:19:35;11.52;56.62
74224;SHT31;62585;49.706;18.216;2023-03-26T11:27:24;11.62;57.48
74224;SHT31;62585;49.706;18.216;2023-03-26T11:32:28;11.54;57.12
74224;SHT31;62585;49.706;18.216;2023-03-26T11:37:35;11.67;56.90
74224;SHT31;62585;49.706;18.216;2023-03-26T11:40:09;11.89;56.86
74224;SHT31;62585;49.706;18.216;2023-03-26T11:42:38;12.34;56.15
74224;SHT31;62585;49.706;18.216;2023-03-26T11:45:11;13.07;55.60
74224;SHT31;62585;49.706;18.216;2023-03-26T11:47:47;13.72;54.98
74224;SHT31;62585;49.706;18.216;2023-03-26T11:50:25;13.54;51.97
74224;SHT31;62585;49.706;18.216;2023-03-26T11:53:01;13.27;51.99
74224;SHT31;62585;49.706;18.216;2023-03-26T11:55:35;13.21;52.12
74224;SHT31;62585;49.706;18.216;2023-03-26T11:58:02;13.64;52.76
74224;SHT31;62585;49.706;18.216;2023-03-26T12:00:30;13.36;51.25
74224;SHT31;62585;49.706;18.216;2023-03-26T12:02:57;13.34;51.96
74224;SHT31;62585;49.706;18.216;2023-03-26T12:05:25;13.43;51.11
74224;SHT31;62585;49.706;18.216;2023-03-26T12:10:30;13.16;52.35
74224;SHT31;62585;49.706;18.216;2023-03-26T12:13:00;12.93;51.15
74224;SHT31;62585;49.706;18.216;2023-03-26T12:15:28;12.79;51.21
74224;SHT31;62585;49.706;18.216;2023-03-26T12:17:57;12.96;51.20
74224;SHT31;62585;49.706;18.216;2023-03-26T12:23:00;13.23;50.81
74224;SHT31;62585;49.706;18.216;2023-03-26T12:25:37;13.36;51.15
74224;SHT31;62585;49.706;18.216;2023-03-26T12:30:51;13.41;50.82
74224;SHT31;62585;49.706;18.216;2023-03-26T12:33:30;13.55;49.89
74224;SHT31;62585;49.706;18.216;2023-03-26T12:36:38;13.33;49.84
74224;SHT31;62585;49.706;18.216;2023-03-26T12:39:37;13.71;49.45
74224;SHT31;62585;49.706;18.216;2023-03-26T12:42:25;13.66;48.42
74224;SHT31;62585;49.706;18.216;2023-03-26T12:44:54;13.69;47.64
74224;SHT31;62585;49.706;18.216;2023-03-26T12:47:27;13.64;48.04
74224;SHT31;62585;49.706;18.216;2023-03-26T12:49:54;13.82;47.30
74224;SHT31;62585;49.706;18.216;2023-03-26T12:52:40;13.72;48.03
74224;SHT31;62585;49.706;18.216;2023-03-26T12:55:39;13.47;48.43
74224;SHT31;62585;49.706;18.216;2023-03-26T13:01:10;13.38;49.20
74224;SHT31;62585;49.706;18.216;2023-03-26T13:06:54;13.89;46.43
74224;SHT31;62585;49.706;18.216;2023-03-26T13:15:15;13.66;44.48
74224;SHT31;62585;49.706;18.216;2023-03-26T13:23:28;13.92;45.03
74224;SHT31;62585;49.706;18.216;2023-03-26T13:31:39;13.75;43.80
74224;SHT31;62585;49.706;18.216;2023-03-26T13:37:17;13.41;45.83
74224;SHT31;62585;49.706;18.216;2023-03-26T13:39:57;13.43;46.34
74224;SHT31;62585;49.706;18.216;2023-03-26T13:43:00;13.20;46.13
74224;SHT31;62585;49.706;18.216;2023-03-26T13:45:41;13.28;46.65
74224;SHT31;62585;49.706;18.216;2023-03-26T13:48:17;13.27;47.27
74224;SHT31;62585;49.706;18.216;2023-03-26T13:51:03;13.41;45.88
74224;SHT31;62585;49.706;18.216;2023-03-26T13:53:40;13.43;46.64
74224;SHT31;62585;49.706;18.216;2023-03-26T13:56:10;13.40;47.26
74224;SHT31;62585;49.706;18.216;2023-03-26T13:59:02;13.54;45.50
74224;SHT31;62585;49.706;18.216;2023-03-26T14:01:35;13.51;45.70
74224;SHT31;62585;49.706;18.216;2023-03-26T14:04:29;13.33;46.34
74224;SHT31;62585;49.706;18.216;2023-03-26T14:10:15;13.24;47.10
74224;SHT31;62585;49.706;18.216;2023-03-26T14:15:53;13.26;46.68
74224;SHT31;62585;49.706;18.216;2023-03-26T14:21:56;13.28;46.69
74224;SHT31;62585;49.706;18.216;2023-03-26T14:30:03;13.10;46.88
74224;SHT31;62585;49.706;18.216;2023-03-26T14:41:24;12.93;47.03
74224;SHT31;62585;49.706;18.216;2023-03-26T14:47:01;12.86;47.08
74224;SHT31;62585;49.706;18.216;2023-03-26T14:50:14;12.76;47.47
74224;SHT31;62585;49.706;18.216;2023-03-26T14:52:30;12.83;47.58
74224;SHT31;62585;49.706;18.216;2023-03-26T14:55:11;12.80;47.87
74224;SHT31;62585;49.706;18.216;2023-03-26T15:17:09;12.73;49.51
74224;SHT31;62585;49.706;18.216;2023-03-26T15:45:31;12.40;48.47
74224;SHT31;62585;49.706;18.216;2023-03-26T15:50:51;12.42;48.10
74224;SHT31;62585;49.706;18.216;2023-03-26T15:59:33;12.30;47.69
74224;SHT31;62585;49.706;18.216;2023-03-26T16:05:01;12.23;48.16
74224;SHT31;62585;49.706;18.216;2023-03-26T16:10:40;12.14;48.20
74224;SHT31;62585;49.706;18.216;2023-03-26T16:18:29;12.13;48.75
74224;SHT31;62585;49.706;18.216;2023-03-26T16:29:20;12.00;49.52
74224;SHT31;62585;49.706;18.216;2023-03-26T16:34:27;11.91;49.45
74224;SHT31;62585;49.706;18.216;2023-03-26T16:36:53;11.97;50.00
74224;SHT31;62585;49.706;18.216;2023-03-26T16:39:37;11.93;50.60
74224;SHT31;62585;49.706;18.216;2023-03-26T16:42:23;11.90;50.61
74224;SHT31;62585;49.706;18.216;2023-03-26T16:45:09;11.83;50.89
74224;SHT31;62585;49.706;18.216;2023-03-26T16:55:56;11.56;51.41
74224;SHT31;62585;49.706;18.216;2023-03-26T16:58:34;11.48;51.70
74224;SHT31;62585;49.706;18.216;2023-03-26T17:03:50;11.34;52.51
74224;SHT31;62585;49.706;18.216;2023-03-26T17:06:30;11.32;53.62
74224;SHT31;62585;49.706;18.216;2023-03-26T17:14:09;10.88;56.74
74224;SHT31;62585;49.706;18.216;2023-03-26T17:16:47;10.80;57.32
74224;SHT31;62585;49.706;18.216;2023-03-26T17:19:33;10.77;58.11
74224;SHT31;62585;49.706;18.216;2023-03-26T17:22:09;10.77;58.41
74224;SHT31;62585;49.706;18.216;2023-03-26T17:32:22;10.63;60.23
74224;SHT31;62585;49.706;18.216;2023-03-26T17:47:42;10.43;62.42
74224;SHT31;62585;49.706;18.216;2023-03-26T17:50:15;10.43;62.36
74224;SHT31;62585;49.706;18.216;2023-03-26T17:53:02;10.38;63.01
74224;SHT31;62585;49.706;18.216;2023-03-26T17:55:33;10.29;63.25
74224;SHT31;62585;49.706;18.216;2023-03-26T17:58:06;10.31;63.66
74224;SHT31;62585;49.706;18.216;2023-03-26T18:00:44;10.28;63.74
74224;SHT31;62585;49.706;18.216;2023-03-26T18:03:17;10.32;63.66
74224;SHT31;62585;49.706;18.216;2023-03-26T18:05:45;10.28;64.63
74224;SHT31;62585;49.706;18.216;2023-03-26T18:13:49;10.01;66.04
74224;SHT31;62585;49.706;18.216;2023-03-26T18:16:35;9.94;67.63
74224;SHT31;62585;49.706;18.216;2023-03-26T18:19:10;9.93;68.90
74224;SHT31;62585;49.706;18.216;2023-03-26T18:21:50;9.77;70.04
74224;SHT31;62585;49.706;18.216;2023-03-26T18:27:03;9.39;73.39
74224;SHT31;62585;49.706;18.216;2023-03-26T18:29:33;9.32;74.31
74224;SHT31;62585;49.706;18.216;2023-03-26T18:32:00;9.26;75.56
74224;SHT31;62585;49.706;18.216;2023-03-26T18:34:28;9.26;75.88
74224;SHT31;62585;49.706;18.216;2023-03-26T18:37:12;9.20;76.24
74224;SHT31;62585;49.706;18.216;2023-03-26T18:42:57;9.15;76.98
74224;SHT31;62585;49.706;18.216;2023-03-26T18:45:26;9.14;77.49
74224;SHT31;62585;49.706;18.216;2023-03-26T18:48:12;9.04;77.98
74224;SHT31;62585;49.706;18.216;2023-03-26T18:50:42;8.91;78.73
74224;SHT31;62585;49.706;18.216;2023-03-26T18:53:14;9.05;78.31
74224;SHT31;62585;49.706;18.216;2023-03-26T18:55:41;9.09;78.34
74224;SHT31;62585;49.706;18.216;2023-03-26T18:58:29;9.08;78.27
74224;SHT31;62585;49.706;18.216;2023-03-26T19:01:04;9.07;78.25
74224;SHT31;62585;49.706;18.216;2023-03-26T19:03:33;9.04;78.59
74224;SHT31;62585;49.706;18.216;2023-03-26T19:06:01;9.22;77.07
74224;SHT31;62585;49.706;18.216;2023-03-26T19:08:29;9.15;77.97
74224;SHT31;62585;49.706;18.216;2023-03-26T19:10:57;9.15;78.18
74224;SHT31;62585;49.706;18.216;2023-03-26T19:13:27;9.09;79.18
74224;SHT31;62585;49.706;18.216;2023-03-26T19:15:53;9.09;78.88
74224;SHT31;62585;49.706;18.216;2023-03-26T19:18:23;9.05;79.25
74224;SHT31;62585;49.706;18.216;2023-03-26T19:20:54;9.11;79.74
74224;SHT31;62585;49.706;18.216;2023-03-26T19:23:24;9.07;80.09
74224;SHT31;62585;49.706;18.216;2023-03-26T19:25:55;8.92;79.30
74224;SHT31;62585;49.706;18.216;2023-03-26T19:28:24;8.89;79.14
74224;SHT31;62585;49.706;18.216;2023-03-26T19:30:58;9.07;79.07
74224;SHT31;62585;49.706;18.216;2023-03-26T19:33:36;8.89;79.58
74224;SHT31;62585;49.706;18.216;2023-03-26T19:36:16;8.97;79.52
74224;SHT31;62585;49.706;18.216;2023-03-26T19:38:50;8.98;79.69
74224;SHT31;62585;49.706;18.216;2023-03-26T19:41:22;8.98;78.98
74224;SHT31;62585;49.706;18.216;2023-03-26T19:43:51;9.02;79.20
74224;SHT31;62585;49.706;18.216;2023-03-26T19:46:21;8.98;79.69
74224;SHT31;62585;49.706;18.216;2023-03-26T19:48:50;9.02;79.62
74224;SHT31;62585;49.706;18.216;2023-03-26T19:51:30;8.92;79.55
74224;SHT31;62585;49.706;18.216;2023-03-26T19:53:59;8.93;79.95
74224;SHT31;62585;49.706;18.216;2023-03-26T19:56:25;8.93;80.22
74224;SHT31;62585;49.706;18.216;2023-03-26T19:58:52;8.97;79.87
74224;SHT31;62585;49.706;18.216;2023-03-26T20:01:21;8.93;79.98
74224;SHT31;62585;49.706;18.216;2023-03-26T20:03:51;8.85;80.22
74224;SHT31;62585;49.706;18.216;2023-03-26T20:06:20;8.81;80.53
74224;SHT31;62585;49.706;18.216;2023-03-26T20:08:46;8.77;80.54
74224;SHT31;62585;49.706;18.216;2023-03-26T20:11:34;8.82;81.40
74224;SHT31;62585;49.706;18.216;2023-03-26T20:14:15;8.92;80.80
74224;SHT31;62585;49.706;18.216;2023-03-26T20:16:41;8.85;81.08
74224;SHT31;62585;49.706;18.216;2023-03-26T20:19:07;8.88;81.43
74224;SHT31;62585;49.706;18.216;2023-03-26T20:21:34;8.84;81.21
74224;SHT31;62585;49.706;18.216;2023-03-26T20:24:00;8.87;81.73
74224;SHT31;62585;49.706;18.216;2023-03-26T20:26:26;8.88;81.21
74224;SHT31;62585;49.706;18.216;2023-03-26T20:28:52;8.88;80.60
74224;SHT31;62585;49.706;18.216;2023-03-26T20:31:23;8.82;80.90
74224;SHT31;62585;49.706;18.216;2023-03-26T20:33:51;8.85;81.44
74224;SHT31;62585;49.706;18.216;2023-03-26T20:36:17;8.78;81.31
74224;SHT31;62585;49.706;18.216;2023-03-26T20:38:45;8.75;81.50
74224;SHT31;62585;49.706;18.216;2023-03-26T20:41:20;8.78;81.29
74224;SHT31;62585;49.706;18.216;2023-03-26T20:43:50;8.75;81.70
74224;SHT31;62585;49.706;18.216;2023-03-26T20:46:19;8.59;82.51
74224;SHT31;62585;49.706;18.216;2023-03-26T20:48:45;8.51;82.95
74224;SHT31;62585;49.706;18.216;2023-03-26T20:51:12;8.54;82.78
74224;SHT31;62585;49.706;18.216;2023-03-26T20:53:40;8.49;83.16
74224;SHT31;62585;49.706;18.216;2023-03-26T20:56:24;8.49;82.40
74224;SHT31;62585;49.706;18.216;2023-03-26T20:58:49;8.41;82.51
74224;SHT31;62585;49.706;18.216;2023-03-26T21:01:18;8.46;82.42
74224;SHT31;62585;49.706;18.216;2023-03-26T21:03:45;8.47;82.28
74224;SHT31;62585;49.706;18.216;2023-03-26T21:06:12;8.39;81.93
74224;SHT31;62585;49.706;18.216;2023-03-26T21:08:42;8.37;81.71
74224;SHT31;62585;49.706;18.216;2023-03-26T21:11:45;8.37;82.72
74224;SHT31;62585;49.706;18.216;2023-03-26T21:16:42;8.28;83.22
74224;SHT31;62585;49.706;18.216;2023-03-26T21:19:08;8.25;84.19
74224;SHT31;62585;49.706;18.216;2023-03-26T21:27:19;8.23;84.11
74224;SHT31;62585;49.706;18.216;2023-03-26T21:29:47;8.32;83.16
74224;SHT31;62585;49.706;18.216;2023-03-26T21:32:13;8.32;82.31
74224;SHT31;62585;49.706;18.216;2023-03-26T21:34:39;8.33;81.74
74224;SHT31;62585;49.706;18.216;2023-03-26T21:37:06;8.32;81.50
74224;SHT31;62585;49.706;18.216;2023-03-26T21:39:32;8.29;81.44
74224;SHT31;62585;49.706;18.216;2023-03-26T21:41:58;8.32;81.39
74224;SHT31;62585;49.706;18.216;2023-03-26T21:44:24;8.34;81.04
74224;SHT31;62585;49.706;18.216;2023-03-26T21:46:51;8.43;80.71
74224;SHT31;62585;49.706;18.216;2023-03-26T21:49:17;8.33;80.48
74224;SHT31;62585;49.706;18.216;2023-03-26T21:51:43;8.37;81.00
74224;SHT31;62585;49.706;18.216;2023-03-26T21:54:30;8.26;81.61
74224;SHT31;62585;49.706;18.216;2023-03-26T22:08:24;8.02;85.49